sensor_id;sensor_type;location;lat;lon;timestamp;temperature;humidity
7876;DHT22;3983;51.930;12.596;2023-04-24T00:01:48;12.00;74.00
7876;DHT22;3983;51.930;12.596;2023-04-24T00:04:14;12.10;73.90
7876;DHT22;3983;51.930;12.596;2023-04-24T00:06:42;11.90;74.40
7876;DHT22;3983;51.930;12.596;2023-04-24T00:09:09;12.10;74.30
7876;DHT22;3983;51.930;12.596;2023-04-24T00:11:36;12.20;73.80
7876;DHT22;3983;51.930;12.596;2023-04-24T00:14:02;12.30;73.90
7876;DHT22;3983;51.930;12.596;2023-04-24T00:16:28;12.30;73.70
7876;DHT22;3983;51.930;12.596;2023-04-24T00:18:54;12.30;73.70
7876;DHT22;3983;51.930;12.596;2023-04-24T00:21:20;12.30;73.60
7876;DHT22;3983;51.930;12.596;2023-04-24T00:23:47;12.20;73.80
7876;DHT22;3983;51.930;12.596;2023-04-24T00:26:13;12.20;73.70
7876;DHT22;3983;51.930;12.596;2023-04-24T00:28:39;12.10;74.00
7876;DHT22;3983;51.930;12.596;2023-04-24T00:31:05;12.10;74.00
7876;DHT22;3983;51.930;12.596;2023-04-24T00:33:31;12.00;74.20
7876;DHT22;3983;51.930;12.596;2023-04-24T00:35:57;11.90;74.40
7876;DHT22;3983;51.930;12.596;2023-04-24T00:38:23;11.90;74.70
7876;DHT22;3983;51.930;12.596;2023-04-24T00:40:48;11.90;74.90
7876;DHT22;3983;51.930;12.596;2023-04-24T00:43:16;11.90;74.70
7876;DHT22;3983;51.930;12.596;2023-04-24T00:45:42;11.80;75.00
7876;DHT22;3983;51.930;12.596;2023-04-24T00:48:08;11.60;75.60
7876;DHT22;3983;51.930;12.596;2023-04-24T00:50:36;11.50;75.50
7876;DHT22;3983;51.930;12.596;2023-04-24T00:53:02;11.70;75.20
7876;DHT22;3983;51.930;12.596;2023-04-24T00:55:28;11.70;75.20
7876;DHT22;3983;51.930;12.596;2023-04-24T00:57:54;11.70;75.00
7876;DHT22;3983;51.930;12.596;2023-04-24T01:00:20;11.70;74.90
7876;DHT22;3983;51.930;12.596;2023-04-24T01:02:47;11.50;75.20
7876;DHT22;3983;51.930;12.596;2023-04-24T01:05:14;11.50;75.40
7876;DHT22;3983;51.930;12.596;2023-04-24T01:07:43;11.50;75.20
7876;DHT22;3983;51.930;12.596;2023-04-24T01:10:11;11.30;75.50
7876;DHT22;3983;51.930;12.596;2023-04-24T01:12:38;11.30;75.70
7876;DHT22;3983;51.930;12.596;2023-04-24T01:15:05;11.30;75.80
7876;DHT22;3983;51.930;12.596;2023-04-24T01:17:32;11.20;75.90
7876;DHT22;3983;51.930;12.596;2023-04-24T01:19:59;11.30;75.80
7876;DHT22;3983;51.930;12.596;2023-04-24T01:22:26;11.30;75.70
7876;DHT22;3983;51.930;12.596;2023-04-24T01:24:53;11.10;75.90
7876;DHT22;3983;51.930;12.596;2023-04-24T01:27:19;11.10;76.10
7876;DHT22;3983;51.930;12.596;2023-04-24T01:29:46;11.00;75.90
7876;DHT22;3983;51.930;12.596;2023-04-24T01:32:14;11.10;75.80
7876;DHT22;3983;51.930;12.596;2023-04-24T01:34:41;10.90;76.20
7876;DHT22;3983;51.930;12.596;2023-04-24T01:37:06;10.80;76.60
7876;DHT22;3983;51.930;12.596;2023-04-24T01:39:33;10.80;76.60
7876;DHT22;3983;51.930;12.596;2023-04-24T01:41:59;10.80;76.80
7876;DHT22;3983;51.930;12.596;2023-04-24T01:44:26;10.80;77.00
7876;DHT22;3983;51.930;12.596;2023-04-24T01:46:52;10.70;77.10
7876;DHT22;3983;51.930;12.596;2023-04-24T01:49:19;10.70;77.30
7876;DHT22;3983;51.930;12.596;2023-04-24T01:51:46;10.80;77.30
7876;DHT22;3983;51.930;12.596;2023-04-24T01:54:12;10.70;77.20
7876;DHT22;3983;51.930;12.596;2023-04-24T01:56:40;10.70;77.30
7876;DHT22;3983;51.930;12.596;2023-04-24T01:59:09;10.80;77.30
7876;DHT22;3983;51.930;12.596;2023-04-24T02:01:37;10.80;77.10
7876;DHT22;3983;51.930;12.596;2023-04-24T02:04:04;10.80;77.00
7876;DHT22;3983;51.930;12.596;2023-04-24T02:06:30;10.80;77.00
7876;DHT22;3983;51.930;12.596;2023-04-24T02:08:58;10.70;76.70
7876;DHT22;3983;51.930;12.596;2023-04-24T02:11:24;10.70;76.90
7876;DHT22;3983;51.930;12.596;2023-04-24T02:13:51;10.70;77.00
7876;DHT22;3983;51.930;12.596;2023-04-24T02:16:17;10.70;76.90
7876;DHT22;3983;51.930;12.596;2023-04-24T02:18:43;10.70;76.50
7876;DHT22;3983;51.930;12.596;2023-04-24T02:21:10;10.60;76.50
7876;DHT22;3983;51.930;12.596;2023-04-24T02:23:36;10.60;76.40
7876;DHT22;3983;51.930;12.596;2023-04-24T02:26:02;10.50;76.30
7876;DHT22;3983;51.930;12.596;2023-04-24T02:28:27;10.50;76.40
7876;DHT22;3983;51.930;12.596;2023-04-24T02:30:53;10.50;76.40
7876;DHT22;3983;51.930;12.596;2023-04-24T02:33:19;10.50;76.20
7876;DHT22;3983;51.930;12.596;2023-04-24T02:35:45;10.50;76.30
7876;DHT22;3983;51.930;12.596;2023-04-24T02:38:11;10.40;76.20
7876;DHT22;3983;51.930;12.596;2023-04-24T02:40:37;10.40;76.00
7876;DHT22;3983;51.930;12.596;2023-04-24T02:43:03;10.40;75.90
7876;DHT22;3983;51.930;12.596;2023-04-24T02:45:28;10.30;75.80
7876;DHT22;3983;51.930;12.596;2023-04-24T02:47:54;10.30;75.80
7876;DHT22;3983;51.930;12.596;2023-04-24T02:50:20;10.30;75.80
7876;DHT22;3983;51.930;12.596;2023-04-24T02:52:46;10.20;76.00
7876;DHT22;3983;51.930;12.596;2023-04-24T02:55:13;10.20;76.00
7876;DHT22;3983;51.930;12.596;2023-04-24T02:57:39;10.10;76.10
7876;DHT22;3983;51.930;12.596;2023-04-24T03:00:06;10.10;75.90
7876;DHT22;3983;51.930;12.596;2023-04-24T03:02:32;10.10;75.80
7876;DHT22;3983;51.930;12.596;2023-04-24T03:04:59;10.10;75.70
7876;DHT22;3983;51.930;12.596;2023-04-24T03:07:25;10.00;75.40
7876;DHT22;3983;51.930;12.596;2023-04-24T03:09:51;10.00;75.50
7876;DHT22;3983;51.930;12.596;2023-04-24T03:12:16;10.00;75.30
7876;DHT22;3983;51.930;12.596;2023-04-24T03:14:43;10.00;75.20
7876;DHT22;3983;51.930;12.596;2023-04-24T03:17:10;9.90;74.70
7876;DHT22;3983;51.930;12.596;2023-04-24T03:19:36;9.80;74.70
7876;DHT22;3983;51.930;12.596;2023-04-24T03:22:02;9.80;74.30
7876;DHT22;3983;51.930;12.596;2023-04-24T03:24:28;9.80;74.30
7876;DHT22;3983;51.930;12.596;2023-04-24T03:26:54;9.80;74.30
7876;DHT22;3983;51.930;12.596;2023-04-24T03:29:21;9.70;74.10
7876;DHT22;3983;51.930;12.596;2023-04-24T03:31:47;9.70;74.20
7876;DHT22;3983;51.930;12.596;2023-04-24T03:34:13;9.70;74.00
7876;DHT22;3983;51.930;12.596;2023-04-24T03:36:38;9.60;74.00
7876;DHT22;3983;51.930;12.596;2023-04-24T03:39:04;9.60;74.20
7876;DHT22;3983;51.930;12.596;2023-04-24T03:41:31;9.70;74.20
7876;DHT22;3983;51.930;12.596;2023-04-24T03:43:57;9.70;73.90
7876;DHT22;3983;51.930;12.596;2023-04-24T03:46:22;9.70;74.00
7876;DHT22;3983;51.930;12.596;2023-04-24T03:48:48;9.70;73.80
7876;DHT22;3983;51.930;12.596;2023-04-24T03:51:14;9.70;73.90
7876;DHT22;3983;51.930;12.596;2023-04-24T03:53:39;9.70;74.00
7876;DHT22;3983;51.930;12.596;2023-04-24T03:56:05;9.70;73.70
7876;DHT22;3983;51.930;12.596;2023-04-24T03:58:31;9.70;73.90
7876;DHT22;3983;51.930;12.596;2023-04-24T04:00:57;9.70;73.80
7876;DHT22;3983;51.930;12.596;2023-04-24T04:03:23;9.70;73.90
7876;DHT22;3983;51.930;12.596;2023-04-24T04:05:50;9.70;74.00
7876;DHT22;3983;51.930;12.596;2023-04-24T04:08:16;9.70;73.90
7876;DHT22;3983;51.930;12.596;2023-04-24T04:10:42;9.60;74.20
7876;DHT22;3983;51.930;12.596;2023-04-24T04:13:08;9.60;74.30
7876;DHT22;3983;51.930;12.596;2023-04-24T04:15:33;9.50;74.40
7876;DHT22;3983;51.930;12.596;2023-04-24T04:17:59;9.50;74.30
7876;DHT22;3983;51.930;12.596;2023-04-24T04:20:25;9.60;74.30
7876;DHT22;3983;51.930;12.596;2023-04-24T04:22:51;9.60;73.90
7876;DHT22;3983;51.930;12.596;2023-04-24T04:25:17;9.60;73.80
7876;DHT22;3983;51.930;12.596;2023-04-24T04:27:46;9.60;73.80
7876;DHT22;3983;51.930;12.596;2023-04-24T04:30:13;9.50;73.50
7876;DHT22;3983;51.930;12.596;2023-04-24T04:32:39;9.50;73.80
7876;DHT22;3983;51.930;12.596;2023-04-24T04:35:14;9.50;73.50
7876;DHT22;3983;51.930;12.596;2023-04-24T04:37:39;9.50;73.70
7876;DHT22;3983;51.930;12.596;2023-04-24T04:40:06;9.50;73.60
7876;DHT22;3983;51.930;12.596;2023-04-24T04:42:33;9.50;73.70
7876;DHT22;3983;51.930;12.596;2023-04-24T04:45:04;9.50;73.40
7876;DHT22;3983;51.930;12.596;2023-04-24T04:47:30;9.60;73.30
7876;DHT22;3983;51.930;12.596;2023-04-24T04:49:57;9.60;73.30
7876;DHT22;3983;51.930;12.596;2023-04-24T04:52:23;9.70;72.90
7876;DHT22;3983;51.930;12.596;2023-04-24T04:54:50;9.80;72.10
7876;DHT22;3983;51.930;12.596;2023-04-24T04:57:16;9.90;72.30
7876;DHT22;3983;51.930;12.596;2023-04-24T04:59:42;9.90;71.60
7876;DHT22;3983;51.930;12.596;2023-04-24T05:02:08;10.00;71.40
7876;DHT22;3983;51.930;12.596;2023-04-24T05:04:34;10.00;71.20
7876;DHT22;3983;51.930;12.596;2023-04-24T05:07:00;10.00;70.90
7876;DHT22;3983;51.930;12.596;2023-04-24T05:09:26;10.10;70.50
7876;DHT22;3983;51.930;12.596;2023-04-24T05:11:53;10.10;70.20
7876;DHT22;3983;51.930;12.596;2023-04-24T05:14:19;10.10;69.90
7876;DHT22;3983;51.930;12.596;2023-04-24T05:16:45;10.20;69.40
7876;DHT22;3983;51.930;12.596;2023-04-24T05:19:10;10.30;69.10
7876;DHT22;3983;51.930;12.596;2023-04-24T05:21:37;10.30;69.00
7876;DHT22;3983;51.930;12.596;2023-04-24T05:24:05;10.30;68.60
7876;DHT22;3983;51.930;12.596;2023-04-24T05:26:31;10.40;68.50
7876;DHT22;3983;51.930;12.596;2023-04-24T05:28:57;10.60;68.00
7876;DHT22;3983;51.930;12.596;2023-04-24T05:31:23;10.60;67.70
7876;DHT22;3983;51.930;12.596;2023-04-24T05:33:49;10.70;67.60
7876;DHT22;3983;51.930;12.596;2023-04-24T05:36:14;10.70;67.00
7876;DHT22;3983;51.930;12.596;2023-04-24T05:38:40;10.70;66.90
7876;DHT22;3983;51.930;12.596;2023-04-24T05:41:06;10.70;67.30
7876;DHT22;3983;51.930;12.596;2023-04-24T05:43:32;10.80;66.80
7876;DHT22;3983;51.930;12.596;2023-04-24T05:45:58;10.90;67.00
7876;DHT22;3983;51.930;12.596;2023-04-24T05:48:24;10.80;67.00
7876;DHT22;3983;51.930;12.596;2023-04-24T05:50:50;10.90;66.60
7876;DHT22;3983;51.930;12.596;2023-04-24T05:53:16;10.90;66.30
7876;DHT22;3983;51.930;12.596;2023-04-24T05:55:41;10.90;66.40
7876;DHT22;3983;51.930;12.596;2023-04-24T05:58:07;10.90;65.90
7876;DHT22;3983;51.930;12.596;2023-04-24T06:00:34;11.00;66.20
7876;DHT22;3983;51.930;12.596;2023-04-24T06:03:00;11.00;65.80
7876;DHT22;3983;51.930;12.596;2023-04-24T06:05:26;11.10;65.50
7876;DHT22;3983;51.930;12.596;2023-04-24T06:07:52;11.10;65.20
7876;DHT22;3983;51.930;12.596;2023-04-24T06:10:18;11.30;65.30
7876;DHT22;3983;51.930;12.596;2023-04-24T06:12:44;11.50;66.10
7876;DHT22;3983;51.930;12.596;2023-04-24T06:15:10;11.50;64.70
7876;DHT22;3983;51.930;12.596;2023-04-24T06:17:36;11.50;64.80
7876;DHT22;3983;51.930;12.596;2023-04-24T06:20:02;11.50;65.00
7876;DHT22;3983;51.930;12.596;2023-04-24T06:22:30;11.60;64.80
7876;DHT22;3983;51.930;12.596;2023-04-24T06:24:55;11.50;64.30
7876;DHT22;3983;51.930;12.596;2023-04-24T06:27:21;11.50;64.50
7876;DHT22;3983;51.930;12.596;2023-04-24T06:29:47;11.50;64.40
7876;DHT22;3983;51.930;12.596;2023-04-24T06:32:14;11.70;64.60
7876;DHT22;3983;51.930;12.596;2023-04-24T06:34:40;11.70;64.50
7876;DHT22;3983;51.930;12.596;2023-04-24T06:37:07;11.90;64.30
7876;DHT22;3983;51.930;12.596;2023-04-24T06:39:33;11.90;63.40
7876;DHT22;3983;51.930;12.596;2023-04-24T06:41:59;11.90;63.70
7876;DHT22;3983;51.930;12.596;2023-04-24T06:44:25;11.70;63.40
7876;DHT22;3983;51.930;12.596;2023-04-24T06:46:51;11.60;63.80
7876;DHT22;3983;51.930;12.596;2023-04-24T06:49:17;11.50;63.90
7876;DHT22;3983;51.930;12.596;2023-04-24T06:51:43;11.50;64.10
7876;DHT22;3983;51.930;12.596;2023-04-24T06:54:08;11.70;63.60
7876;DHT22;3983;51.930;12.596;2023-04-24T06:56:34;11.60;64.10
7876;DHT22;69649;53.712;9.680;2023-04-24T06:59:00;11.70;64.00
7876;DHT22;69649;53.712;9.680;2023-04-24T07:01:26;11.70;63.90
7876;DHT22;69649;53.712;9.680;2023-04-24T07:03:52;11.80;63.60
7876;DHT22;69649;53.712;9.680;2023-04-24T07:06:18;11.90;63.50
7876;DHT22;69649;53.712;9.680;2023-04-24T07:08:46;11.90;63.00
7876;DHT22;69649;53.712;9.680;2023-04-24T07:11:11;12.00;63.60
7876;DHT22;69649;53.712;9.680;2023-04-24T07:13:37;12.00;63.00
7876;DHT22;69649;53.712;9.680;2023-04-24T07:16:05;12.00;63.00
7876;DHT22;69649;53.712;9.680;2023-04-24T07:18:31;11.90;62.70
7876;DHT22;69649;53.712;9.680;2023-04-24T07:20:56;12.00;63.70
7876;DHT22;69649;53.712;9.680;2023-04-24T07:23:22;12.10;62.50
7876;DHT22;69649;53.712;9.680;2023-04-24T07:25:48;12.20;62.70
7876;DHT22;69649;53.712;9.680;2023-04-24T07:28:14;12.40;62.50
7876;DHT22;69649;53.712;9.680;2023-04-24T07:30:40;12.50;61.70
7876;DHT22;69649;53.712;9.680;2023-04-24T07:33:05;12.50;61.60
7876;DHT22;69649;53.712;9.680;2023-04-24T07:35:33;12.50;61.50
7876;DHT22;69649;53.712;9.680;2023-04-24T07:37:58;12.40;61.50
7876;DHT22;69649;53.712;9.680;2023-04-24T07:40:24;12.20;62.30
7876;DHT22;69649;53.712;9.680;2023-04-24T07:42:50;12.10;62.50
7876;DHT22;69649;53.712;9.680;2023-04-24T07:45:16;12.00;63.00
7876;DHT22;69649;53.712;9.680;2023-04-24T07:47:42;11.90;62.80
7876;DHT22;69649;53.712;9.680;2023-04-24T07:50:10;11.90;63.20
7876;DHT22;69649;53.712;9.680;2023-04-24T07:52:35;12.00;63.30
7876;DHT22;69649;53.712;9.680;2023-04-24T07:55:02;12.00;62.80
7876;DHT22;69649;53.712;9.680;2023-04-24T07:57:28;11.90;63.00
7876;DHT22;69649;53.712;9.680;2023-04-24T07:59:54;12.00;63.60
7876;DHT22;69649;53.712;9.680;2023-04-24T08:02:21;12.20;64.10
7876;DHT22;69649;53.712;9.680;2023-04-24T08:04:48;12.30;62.90
7876;DHT22;69649;53.712;9.680;2023-04-24T08:07:14;12.20;62.80
7876;DHT22;69649;53.712;9.680;2023-04-24T08:09:40;12.30;63.00
7876;DHT22;69649;53.712;9.680;2023-04-24T08:12:06;12.40;62.50
7876;DHT22;69649;53.712;9.680;2023-04-24T08:14:32;12.50;62.80
7876;DHT22;69649;53.712;9.680;2023-04-24T08:16:57;12.50;62.60
7876;DHT22;69649;53.712;9.680;2023-04-24T08:19:25;12.50;62.20
7876;DHT22;69649;53.712;9.680;2023-04-24T08:21:51;12.50;62.00
7876;DHT22;69649;53.712;9.680;2023-04-24T08:26:56;12.50;61.80
7876;DHT22;69649;53.712;9.680;2023-04-24T08:29:23;12.50;62.50
7876;DHT22;69649;53.712;9.680;2023-04-24T08:31:49;12.50;62.10
7876;DHT22;69649;53.712;9.680;2023-04-24T08:34:15;12.50;61.70
7876;DHT22;69649;53.712;9.680;2023-04-24T08:36:41;12.30;61.40
7876;DHT22;69649;53.712;9.680;2023-04-24T08:39:07;12.10;61.90
7876;DHT22;69649;53.712;9.680;2023-04-24T08:41:34;12.20;61.40
7876;DHT22;69649;53.712;9.680;2023-04-24T08:44:01;12.20;62.00
7876;DHT22;69649;53.712;9.680;2023-04-24T08:46:27;12.50;61.90
7876;DHT22;69649;53.712;9.680;2023-04-24T08:48:55;12.60;61.50
7876;DHT22;69649;53.712;9.680;2023-04-24T08:51:22;12.80;61.10
7876;DHT22;69649;53.712;9.680;2023-04-24T08:53:48;12.70;61.10
7876;DHT22;69649;53.712;9.680;2023-04-24T08:56:15;12.70;62.00
7876;DHT22;69649;53.712;9.680;2023-04-24T08:58:42;12.70;61.70
7876;DHT22;69649;53.712;9.680;2023-04-24T09:01:08;12.80;61.90
7876;DHT22;69649;53.712;9.680;2023-04-24T09:03:35;12.80;62.10
7876;DHT22;69649;53.712;9.680;2023-04-24T09:06:02;12.80;61.20
7876;DHT22;69649;53.712;9.680;2023-04-24T09:08:29;12.70;62.00
7876;DHT22;69649;53.712;9.680;2023-04-24T09:10:55;12.70;61.40
7876;DHT22;69649;53.712;9.680;2023-04-24T09:13:23;12.70;61.90
7876;DHT22;69649;53.712;9.680;2023-04-24T09:15:51;12.60;61.40
7876;DHT22;69649;53.712;9.680;2023-04-24T09:18:17;12.60;61.70
7876;DHT22;69649;53.712;9.680;2023-04-24T09:21:04;12.60;61.50
7876;DHT22;69649;53.712;9.680;2023-04-24T09:23:31;12.70;61.70
7876;DHT22;69649;53.712;9.680;2023-04-24T09:25:59;12.70;61.40
7876;DHT22;69649;53.712;9.680;2023-04-24T09:28:35;12.70;60.90
7876;DHT22;69649;53.712;9.680;2023-04-24T09:31:08;12.70;61.60
7876;DHT22;69649;53.712;9.680;2023-04-24T09:33:35;12.70;61.20
7876;DHT22;69649;53.712;9.680;2023-04-24T09:36:01;12.70;61.30
7876;DHT22;69649;53.712;9.680;2023-04-24T09:38:33;12.80;61.50
7876;DHT22;69649;53.712;9.680;2023-04-24T09:41:07;12.80;61.10
7876;DHT22;69649;53.712;9.680;2023-04-24T09:43:34;12.70;60.70
7876;DHT22;69649;53.712;9.680;2023-04-24T09:46:06;12.70;61.30
7876;DHT22;69649;53.712;9.680;2023-04-24T09:48:35;12.60;61.10
7876;DHT22;69649;53.712;9.680;2023-04-24T09:51:03;12.60;61.70
7876;DHT22;69649;53.712;9.680;2023-04-24T09:53:30;12.50;61.40
7876;DHT22;69649;53.712;9.680;2023-04-24T09:56:11;12.50;61.70
7876;DHT22;69649;53.712;9.680;2023-04-24T09:58:35;12.50;61.60
7876;DHT22;69649;53.712;9.680;2023-04-24T10:01:01;12.70;61.30
7876;DHT22;69649;53.712;9.680;2023-04-24T10:03:34;12.80;60.30
7876;DHT22;69649;53.712;9.680;2023-04-24T10:06:01;12.70;60.10
7876;DHT22;69649;53.712;9.680;2023-04-24T10:08:35;12.50;60.50
7876;DHT22;69649;53.712;9.680;2023-04-24T10:11:01;12.50;60.90
7876;DHT22;69649;53.712;9.680;2023-04-24T10:13:28;12.50;61.00
7876;DHT22;69649;53.712;9.680;2023-04-24T10:15:56;12.60;60.90
7876;DHT22;69649;53.712;9.680;2023-04-24T10:18:22;12.50;61.10
7876;DHT22;69649;53.712;9.680;2023-04-24T10:20:50;12.50;61.10
7876;DHT22;69649;53.712;9.680;2023-04-24T10:23:16;12.30;61.80
7876;DHT22;69649;53.712;9.680;2023-04-24T10:25:44;12.20;62.00
7876;DHT22;69649;53.712;9.680;2023-04-24T10:28:11;12.20;61.90
7876;DHT22;69649;53.712;9.680;2023-04-24T10:30:39;12.30;61.20
7876;DHT22;69649;53.712;9.680;2023-04-24T10:33:08;12.50;60.90
7876;DHT22;69649;53.712;9.680;2023-04-24T10:35:37;12.50;61.00
7876;DHT22;69649;53.712;9.680;2023-04-24T10:38:06;12.40;61.00
7876;DHT22;69649;53.712;9.680;2023-04-24T10:40:34;12.50;61.00
7876;DHT22;69649;53.712;9.680;2023-04-24T10:43:07;12.50;61.20
7876;DHT22;69649;53.712;9.680;2023-04-24T10:45:35;12.50;60.90
7876;DHT22;69649;53.712;9.680;2023-04-24T10:48:05;12.50;60.90
7876;DHT22;69649;53.712;9.680;2023-04-24T10:50:50;12.30;61.60
7876;DHT22;69649;53.712;9.680;2023-04-24T10:53:20;12.30;62.00
7876;DHT22;69649;53.712;9.680;2023-04-24T10:56:05;12.30;61.80
7876;DHT22;69649;53.712;9.680;2023-04-24T10:58:44;12.20;61.90
7876;DHT22;69649;53.712;9.680;2023-04-24T11:01:06;12.00;62.20
7876;DHT22;69649;53.712;9.680;2023-04-24T11:03:34;12.00;62.30
7876;DHT22;69649;53.712;9.680;2023-04-24T11:06:08;11.90;62.50
7876;DHT22;69649;53.712;9.680;2023-04-24T11:08:39;11.90;62.80
7876;DHT22;69649;53.712;9.680;2023-04-24T11:11:12;11.90;62.60
7876;DHT22;69649;53.712;9.680;2023-04-24T11:19:17;12.00;62.20
7876;DHT22;69649;53.712;9.680;2023-04-24T11:22:06;12.00;62.10
7876;DHT22;69649;53.712;9.680;2023-04-24T11:27:22;11.70;62.10
7876;DHT22;69649;53.712;9.680;2023-04-24T11:32:29;11.70;61.90
7876;DHT22;69649;53.712;9.680;2023-04-24T11:35:13;11.60;62.10
7876;DHT22;69649;53.712;9.680;2023-04-24T11:37:38;11.70;62.40
7876;DHT22;69649;53.712;9.680;2023-04-24T11:40:06;11.80;61.90
7876;DHT22;69649;53.712;9.680;2023-04-24T11:42:36;11.80;62.30
7876;DHT22;69649;53.712;9.680;2023-04-24T11:45:14;11.90;62.50
7876;DHT22;69649;53.712;9.680;2023-04-24T11:47:41;11.90;62.50
7876;DHT22;69649;53.712;9.680;2023-04-24T11:50:10;12.00;62.20
7876;DHT22;69649;53.712;9.680;2023-04-24T11:52:39;12.00;61.30
7876;DHT22;69649;53.712;9.680;2023-04-24T11:57:56;11.70;61.50
7876;DHT22;69649;53.712;9.680;2023-04-24T12:00:29;11.70;61.60
7876;DHT22;69649;53.712;9.680;2023-04-24T12:03:10;11.70;61.30
7876;DHT22;69649;53.712;9.680;2023-04-24T12:05:37;11.70;61.60
7876;DHT22;69649;53.712;9.680;2023-04-24T12:08:05;11.70;61.50
7876;DHT22;69649;53.712;9.680;2023-04-24T12:10:32;11.80;61.50
7876;DHT22;69649;53.712;9.680;2023-04-24T12:12:59;11.80;61.50
7876;DHT22;69649;53.712;9.680;2023-04-24T12:15:26;11.70;61.20
7876;DHT22;69649;53.712;9.680;2023-04-24T12:17:54;11.70;61.40
7876;DHT22;69649;53.712;9.680;2023-04-24T12:20:28;11.80;60.90
7876;DHT22;69649;53.712;9.680;2023-04-24T12:22:59;11.90;61.30
7876;DHT22;69649;53.712;9.680;2023-04-24T12:25:31;11.80;61.10
7876;DHT22;69649;53.712;9.680;2023-04-24T12:30:38;11.80;60.90
7876;DHT22;69649;53.712;9.680;2023-04-24T12:33:03;11.80;61.10
7876;DHT22;69649;53.712;9.680;2023-04-24T12:35:31;11.90;61.00
7876;DHT22;69649;53.712;9.680;2023-04-24T12:38:07;11.80;61.20
7876;DHT22;69649;53.712;9.680;2023-04-24T12:40:33;11.70;61.60
7876;DHT22;69649;53.712;9.680;2023-04-24T12:42:59;11.60;62.50
7876;DHT22;69649;53.712;9.680;2023-04-24T12:45:25;11.50;62.90
7876;DHT22;69649;53.712;9.680;2023-04-24T12:47:53;11.50;63.20
7876;DHT22;69649;53.712;9.680;2023-04-24T12:50:19;11.40;63.80
7876;DHT22;69649;53.712;9.680;2023-04-24T12:52:45;11.40;63.60
7876;DHT22;69649;53.712;9.680;2023-04-24T12:55:11;11.50;62.50
7876;DHT22;69649;53.712;9.680;2023-04-24T12:57:39;11.50;62.50
7876;DHT22;69649;53.712;9.680;2023-04-24T13:00:07;11.70;62.50
7876;DHT22;69649;53.712;9.680;2023-04-24T13:02:34;11.90;61.90
7876;DHT22;69649;53.712;9.680;2023-04-24T13:05:00;12.00;62.30
7876;DHT22;69649;53.712;9.680;2023-04-24T13:07:27;12.10;61.60
7876;DHT22;69649;53.712;9.680;2023-04-24T13:09:54;12.10;61.80
7876;DHT22;69649;53.712;9.680;2023-04-24T13:12:21;12.10;61.50
7876;DHT22;69649;53.712;9.680;2023-04-24T13:14:49;12.00;61.90
7876;DHT22;69649;53.712;9.680;2023-04-24T13:17:15;11.90;64.30
7876;DHT22;69649;53.712;9.680;2023-04-24T13:19:42;11.80;66.00
7876;DHT22;69649;53.712;9.680;2023-04-24T13:22:10;11.50;65.50
7876;DHT22;69649;53.712;9.680;2023-04-24T13:24:36;11.30;66.10
7876;DHT22;69649;53.712;9.680;2023-04-24T13:27:03;11.00;66.10
7876;DHT22;69649;53.712;9.680;2023-04-24T13:29:29;10.80;66.60
7876;DHT22;69649;53.712;9.680;2023-04-24T13:31:55;10.90;66.60
7876;DHT22;69649;53.712;9.680;2023-04-24T13:34:26;10.90;66.60
7876;DHT22;69649;53.712;9.680;2023-04-24T13:36:50;10.80;66.90
7876;DHT22;69649;53.712;9.680;2023-04-24T13:39:16;11.00;66.90
7876;DHT22;69649;53.712;9.680;2023-04-24T13:41:42;11.00;66.60
7876;DHT22;69649;53.712;9.680;2023-04-24T13:44:08;11.10;66.50
7876;DHT22;69649;53.712;9.680;2023-04-24T13:46:34;11.10;66.20
7876;DHT22;69649;53.712;9.680;2023-04-24T13:49:02;11.10;65.20
7876;DHT22;69649;53.712;9.680;2023-04-24T13:51:29;11.10;65.10
7876;DHT22;69649;53.712;9.680;2023-04-24T13:53:55;11.20;65.00
7876;DHT22;69649;53.712;9.680;2023-04-24T13:56:22;11.30;64.80
7876;DHT22;69649;53.712;9.680;2023-04-24T13:58:48;11.30;64.50
7876;DHT22;69649;53.712;9.680;2023-04-24T14:01:14;11.20;64.80
7876;DHT22;69649;53.712;9.680;2023-04-24T14:03:41;11.10;65.00
7876;DHT22;69649;53.712;9.680;2023-04-24T14:06:07;11.10;64.80
7876;DHT22;69649;53.712;9.680;2023-04-24T14:08:33;11.00;67.70
7876;DHT22;69649;53.712;9.680;2023-04-24T14:10:59;10.50;69.60
7876;DHT22;69649;53.712;9.680;2023-04-24T14:13:25;10.30;70.70
7876;DHT22;69649;53.712;9.680;2023-04-24T14:15:51;10.10;70.20
7876;DHT22;69649;53.712;9.680;2023-04-24T14:18:18;10.10;71.20
7876;DHT22;69649;53.712;9.680;2023-04-24T14:20:44;10.00;71.20
7876;DHT22;69649;53.712;9.680;2023-04-24T14:23:10;10.10;71.10
7876;DHT22;69649;53.712;9.680;2023-04-24T14:25:36;10.00;71.00
7876;DHT22;69649;53.712;9.680;2023-04-24T14:28:02;10.00;70.90
7876;DHT22;69649;53.712;9.680;2023-04-24T14:30:28;10.00;71.30
7876;DHT22;69649;53.712;9.680;2023-04-24T14:32:54;10.10;71.90
7876;DHT22;69649;53.712;9.680;2023-04-24T14:35:20;10.10;71.30
7876;DHT22;69649;53.712;9.680;2023-04-24T14:37:46;10.10;71.10
7876;DHT22;69649;53.712;9.680;2023-04-24T14:40:13;10.20;71.50
7876;DHT22;69649;53.712;9.680;2023-04-24T14:42:39;10.40;71.40
7876;DHT22;69649;53.712;9.680;2023-04-24T14:45:06;10.20;71.20
7876;DHT22;69649;53.712;9.680;2023-04-24T14:47:34;10.10;72.10
7876;DHT22;69649;53.712;9.680;2023-04-24T14:49:59;10.10;72.10
7876;DHT22;69649;53.712;9.680;2023-04-24T14:52:25;10.00;71.80
7876;DHT22;69649;53.712;9.680;2023-04-24T14:54:51;10.00;70.30
7876;DHT22;69649;53.712;9.680;2023-04-24T14:57:17;10.00;71.20
7876;DHT22;69649;53.712;9.680;2023-04-24T14:59:43;9.80;71.60
7876;DHT22;69649;53.712;9.680;2023-04-24T15:02:09;9.80;72.10
7876;DHT22;69649;53.712;9.680;2023-04-24T15:04:36;9.70;72.60
7876;DHT22;69649;53.712;9.680;2023-04-24T15:07:02;9.50;73.80
7876;DHT22;69649;53.712;9.680;2023-04-24T15:09:27;9.30;74.40
7876;DHT22;69649;53.712;9.680;2023-04-24T15:11:53;9.10;75.30
7876;DHT22;69649;53.712;9.680;2023-04-24T15:14:19;8.90;76.30
7876;DHT22;69649;53.712;9.680;2023-04-24T15:16:45;8.80;77.30
7876;DHT22;69649;53.712;9.680;2023-04-24T15:19:11;8.70;77.30
7876;DHT22;69649;53.712;9.680;2023-04-24T15:21:37;8.60;77.50
7876;DHT22;69649;53.712;9.680;2023-04-24T15:24:04;8.60;76.90
7876;DHT22;69649;53.712;9.680;2023-04-24T15:26:30;8.60;76.90
7876;DHT22;69649;53.712;9.680;2023-04-24T15:28:56;8.50;76.70
7876;DHT22;69649;53.712;9.680;2023-04-24T15:31:22;8.50;77.60
7876;DHT22;69649;53.712;9.680;2023-04-24T15:33:51;9.20;78.20
7876;DHT22;69649;53.712;9.680;2023-04-24T15:36:17;8.90;76.20
7876;DHT22;69649;53.712;9.680;2023-04-24T15:38:44;8.70;76.40
7876;DHT22;69649;53.712;9.680;2023-04-24T15:41:11;8.50;77.00
7876;DHT22;69649;53.712;9.680;2023-04-24T15:43:36;8.40;77.40
7876;DHT22;69649;53.712;9.680;2023-04-24T15:46:04;8.30;77.50
7876;DHT22;69649;53.712;9.680;2023-04-24T15:48:30;8.10;77.60
7876;DHT22;69649;53.712;9.680;2023-04-24T15:50:57;8.00;77.70
7876;DHT22;69649;53.712;9.680;2023-04-24T15:53:24;8.00;77.70
7876;DHT22;69649;53.712;9.680;2023-04-24T15:55:52;8.00;77.70
7876;DHT22;69649;53.712;9.680;2023-04-24T15:58:19;7.80;77.50
7876;DHT22;69649;53.712;9.680;2023-04-24T16:00:46;7.60;77.40
7876;DHT22;69649;53.712;9.680;2023-04-24T16:03:12;7.60;77.80
7876;DHT22;69649;53.712;9.680;2023-04-24T16:05:39;7.60;77.70
7876;DHT22;69649;53.712;9.680;2023-04-24T16:08:05;7.50;77.40